sensor_id;sensor_type;location;lat;lon;timestamp;pressure;altitude;pressure_sealevel;temperature;humidity
8140;BME280;4111;50.972;7.072;2024-01-07T00:00:40;101016.19;;;4.32;100.00
8140;BME280;4111;50.972;7.072;2024-01-07T00:03:07;101018.25;;;4.30;100.00
8140;BME280;4111;50.972;7.072;2024-01-07T00:05:35;101027.34;;;4.29;100.00
8140;BME280;4111;50.972;7.072;2024-01-07T00:08:02;101017.44;;;4.36;100.00
8140;BME280;4111;50.972;7.072;2024-01-07T00:10:29;101020.34;;;4.34;100.00
8140;BME280;4111;50.972;7.072;2024-01-07T00:12:55;101014.13;;;4.34;100.00
8140;BME280;4111;50.972;7.072;2024-01-07T00:15:23;101026.78;;;4.40;100.00
8140;BME280;4111;50.972;7.072;2024-01-07T00:17:53;101028.81;;;4.38;100.00
8140;BME280;4111;50.972;7.072;2024-01-07T00:20:22;101037.13;;;4.43;100.00
8140;BME280;4111;50.972;7.072;2024-01-07T00:22:49;101028.03;;;4.44;100.00
8140;BME280;4111;50.972;7.072;2024-01-07T00:25:16;101032.78;;;4.42;100.00
8140;BME280;4111;50.972;7.072;2024-01-07T00:27:44;101025.75;;;4.41;100.00
8140;BME280;4111;50.972;7.072;2024-01-07T00:30:21;101036.91;;;4.38;100.00
8140;BME280;4111;50.972;7.072;2024-01-07T00:32:48;101040.66;;;4.44;100.00
8140;BME280;4111;50.972;7.072;2024-01-07T00:35:17;101047.91;;;4.43;100.00
8140;BME280;4111;50.972;7.072;2024-01-07T00:37:44;101034.44;;;4.43;100.00
8140;BME280;4111;50.972;7.072;2024-01-07T00:40:11;101037.78;;;4.45;100.00
8140;BME280;4111;50.972;7.072;2024-01-07T00:42:38;101032.78;;;4.42;100.00
8140;BME280;4111;50.972;7.072;2024-01-07T00:45:04;101040.22;;;4.40;100.00
8140;BME280;4111;50.972;7.072;2024-01-07T00:47:31;101036.72;;;4.46;100.00
8140;BME280;4111;50.972;7.072;2024-01-07T00:49:57;101034.03;;;4.46;100.00
8140;BME280;4111;50.972;7.072;2024-01-07T00:52:24;101044.78;;;4.46;100.00
8140;BME280;4111;50.972;7.072;2024-01-07T00:54:51;101040.91;;;4.49;100.00
8140;BME280;4111;50.972;7.072;2024-01-07T00:57:19;101042.75;;;4.48;100.00
8140;BME280;4111;50.972;7.072;2024-01-07T00:59:46;101050.59;;;4.43;100.00
8140;BME280;4111;50.972;7.072;2024-01-07T01:02:12;101042.72;;;4.42;100.00
8140;BME280;4111;50.972;7.072;2024-01-07T01:04:39;101046.47;;;4.47;100.00
8140;BME280;4111;50.972;7.072;2024-01-07T01:07:11;101051.19;;;4.39;100.00
8140;BME280;4111;50.972;7.072;2024-01-07T01:09:38;101048.72;;;4.44;100.00
8140;BME280;4111;50.972;7.072;2024-01-07T01:12:05;101054.72;;;4.46;100.00
8140;BME280;4111;50.972;7.072;2024-01-07T01:14:39;101052.84;;;4.46;100.00
8140;BME280;4111;50.972;7.072;2024-01-07T01:17:05;101055.16;;;4.49;100.00
8140;BME280;4111;50.972;7.072;2024-01-07T01:19:32;101053.91;;;4.45;100.00
8140;BME280;4111;50.972;7.072;2024-01-07T01:21:59;101055.97;;;4.43;100.00
8140;BME280;4111;50.972;7.072;2024-01-07T01:24:26;101065.91;;;4.49;100.00
8140;BME280;4111;50.972;7.072;2024-01-07T01:26:52;101064.28;;;4.48;100.00
8140;BME280;4111;50.972;7.072;2024-01-07T01:29:18;101070.84;;;4.46;100.00
8140;BME280;4111;50.972;7.072;2024-01-07T01:31:45;101075.84;;;4.49;100.00
8140;BME280;4111;50.972;7.072;2024-01-07T01:34:11;101076.44;;;4.44;100.00
8140;BME280;4111;50.972;7.072;2024-01-07T01:36:38;101073.75;;;4.44;100.00
8140;BME280;4111;50.972;7.072;2024-01-07T01:39:05;101079.75;;;4.46;100.00
8140;BME280;4111;50.972;7.072;2024-01-07T01:41:32;101069.22;;;4.45;100.00
8140;BME280;4111;50.972;7.072;2024-01-07T01:44:00;101081.59;;;4.39;100.00
8140;BME280;4111;50.972;7.072;2024-01-07T01:46:28;101079.91;;;4.38;100.00
8140;BME280;4111;50.972;7.072;2024-01-07T01:48:55;101075.75;;;4.35;100.00
8140;BME280;4111;50.972;7.072;2024-01-07T01:51:22;101083.81;;;4.29;100.00
8140;BME280;4111;50.972;7.072;2024-01-07T01:53:49;101081.16;;;4.35;100.00
8140;BME280;4111;50.972;7.072;2024-01-07T01:56:18;101084.91;;;4.41;100.00
8140;BME280;4111;50.972;7.072;2024-01-07T01:58:47;101072.00;;;4.30;100.00
8140;BME280;4111;50.972;7.072;2024-01-07T02:01:14;101078.19;;;4.30;100.00
8140;BME280;4111;50.972;7.072;2024-01-07T02:03:46;101081.59;;;4.39;100.00
8140;BME280;4111;50.972;7.072;2024-01-07T02:06:13;101086.16;;;4.45;100.00
8140;BME280;4111;50.972;7.072;2024-01-07T02:08:40;101093.59;;;4.43;100.00
8140;BME280;4111;50.972;7.072;2024-01-07T02:11:20;101089.41;;;4.34;100.00
8140;BME280;4111;50.972;7.072;2024-01-07T02:13:47;101098.88;;;4.30;100.00
8140;BME280;4111;50.972;7.072;2024-01-07T02:16:14;101096.44;;;4.35;100.00
8140;BME280;4111;50.972;7.072;2024-01-07T02:18:42;101097.72;;;4.39;100.00
8140;BME280;4111;50.972;7.072;2024-01-07T02:21:10;101104.34;;;4.43;100.00
8140;BME280;4111;50.972;7.072;2024-01-07T02:23:37;101110.38;;;4.45;100.00
8140;BME280;4111;50.972;7.072;2024-01-07T02:26:04;101111.38;;;4.44;100.00
8140;BME280;4111;50.972;7.072;2024-01-07T02:28:31;101116.75;;;4.44;100.00
8140;BME280;4111;50.972;7.072;2024-01-07T02:30:58;101116.56;;;4.46;100.00
8140;BME280;4111;50.972;7.072;2024-01-07T02:33:24;101123.44;;;4.48;100.00
8140;BME280;4111;50.972;7.072;2024-01-07T02:35:51;101121.38;;;4.50;100.00
8140;BME280;4111;50.972;7.072;2024-01-07T02:38:17;101115.56;;;4.47;100.00
8140;BME280;4111;50.972;7.072;2024-01-07T02:40:44;101116.38;;;4.47;100.00
8140;BME280;4111;50.972;7.072;2024-01-07T02:43:10;101123.81;;;4.45;100.00
8140;BME280;4111;50.972;7.072;2024-01-07T02:45:37;101120.94;;;4.47;100.00
8140;BME280;4111;50.972;7.072;2024-01-07T02:48:04;101120.09;;;4.46;100.00
8140;BME280;4111;50.972;7.072;2024-01-07T02:50:32;101120.50;;;4.43;100.00
8140;BME280;4111;50.972;7.072;2024-01-07T02:52:59;101119.44;;;4.44;100.00
8140;BME280;4111;50.972;7.072;2024-01-07T02:55:25;101122.13;;;4.44;100.00
8140;BME280;4111;50.972;7.072;2024-01-07T02:57:51;101120.69;;;4.42;100.00
8140;BME280;4111;50.972;7.072;2024-01-07T03:00:18;101121.66;;;4.34;100.00
8140;BME280;4111;50.972;7.072;2024-01-07T03:02:45;101126.25;;;4.40;100.00
8140;BME280;4111;50.972;7.072;2024-01-07T03:08:57;101135.72;;;4.36;100.00
8140;BME280;4111;50.972;7.072;2024-01-07T03:11:23;101133.69;;;4.38;100.00
8140;BME280;4111;50.972;7.072;2024-01-07T03:13:50;101135.16;;;4.41;100.00
8140;BME280;4111;50.972;7.072;2024-01-07T03:16:21;101142.00;;;4.43;100.00
8140;BME280;4111;50.972;7.072;2024-01-07T03:18:47;101137.63;;;4.42;100.00
8140;BME280;4111;50.972;7.072;2024-01-07T03:21:21;101145.28;;;4.39;100.00
8140;BME280;4111;50.972;7.072;2024-01-07T03:23:49;101137.78;;;4.34;100.00
8140;BME280;4111;50.972;7.072;2024-01-07T03:26:18;101141.41;;;4.20;100.00
8140;BME280;4111;50.972;7.072;2024-01-07T03:28:44;101144.69;;;4.15;100.00
8140;BME280;4111;50.972;7.072;2024-01-07T03:31:12;101145.78;;;4.21;100.00
8140;BME280;4111;50.972;7.072;2024-01-07T03:33:41;101147.94;;;4.10;100.00
8140;BME280;4111;50.972;7.072;2024-01-07T03:36:10;101148.47;;;4.21;100.00
8140;BME280;4111;50.972;7.072;2024-01-07T03:38:37;101150.47;;;4.18;100.00
8140;BME280;4111;50.972;7.072;2024-01-07T03:41:04;101153.94;;;4.12;100.00
8140;BME280;4111;50.972;7.072;2024-01-07T03:43:31;101154.03;;;3.97;100.00
8140;BME280;4111;50.972;7.072;2024-01-07T03:45:58;101152.81;;;4.00;100.00
8140;BME280;4111;50.972;7.072;2024-01-07T03:48:25;101156.59;;;4.06;100.00
8140;BME280;4111;50.972;7.072;2024-01-07T03:50:52;101156.63;;;4.12;100.00
8140;BME280;4111;50.972;7.072;2024-01-07T03:53:18;101164.06;;;4.10;100.00
8140;BME280;4111;50.972;7.072;2024-01-07T03:55:45;101156.41;;;4.07;100.00
8140;BME280;4111;50.972;7.072;2024-01-07T03:58:12;101155.69;;;3.98;100.00
8140;BME280;4111;50.972;7.072;2024-01-07T04:00:39;101156.72;;;3.97;100.00
8140;BME280;4111;50.972;7.072;2024-01-07T04:03:08;101174.50;;;3.77;100.00
8140;BME280;4111;50.972;7.072;2024-01-07T04:05:34;101170.34;;;3.74;100.00
8140;BME280;4111;50.972;7.072;2024-01-07T04:08:01;101169.97;;;3.77;100.00
8140;BME280;4111;50.972;7.072;2024-01-07T04:10:28;101164.91;;;3.68;100.00
8140;BME280;4111;50.972;7.072;2024-01-07T04:12:55;101171.47;;;3.65;100.00
8140;BME280;4111;50.972;7.072;2024-01-07T04:15:22;101177.88;;;3.64;100.00
8140;BME280;4111;50.972;7.072;2024-01-07T04:17:49;101171.88;;;3.62;100.00
8140;BME280;4111;50.972;7.072;2024-01-07T04:20:16;101184.56;;;3.53;100.00
8140;BME280;4111;50.972;7.072;2024-01-07T04:22:42;101177.59;;;3.59;100.00
8140;BME280;4111;50.972;7.072;2024-01-07T04:25:08;101177.59;;;3.59;100.00
8140;BME280;4111;50.972;7.072;2024-01-07T04:27:39;101188.09;;;3.54;100.00
8140;BME280;4111;50.972;7.072;2024-01-07T04:30:06;101186.19;;;3.48;100.00
8140;BME280;4111;50.972;7.072;2024-01-07T04:32:33;101190.38;;;3.57;100.00
8140;BME280;4111;50.972;7.072;2024-01-07T04:34:59;101185.78;;;3.51;100.00
8140;BME280;4111;50.972;7.072;2024-01-07T04:37:26;101191.16;;;3.51;100.00
8140;BME280;4111;50.972;7.072;2024-01-07T04:39:52;101194.75;;;3.58;100.00
8140;BME280;4111;50.972;7.072;2024-01-07T04:42:18;101196.16;;;3.54;100.00
8140;BME280;4111;50.972;7.072;2024-01-07T04:44:45;101200.50;;;3.55;100.00
8140;BME280;4111;50.972;7.072;2024-01-07T04:47:29;101199.09;;;3.59;100.00
8140;BME280;4111;50.972;7.072;2024-01-07T04:49:57;101201.53;;;3.54;100.00
8140;BME280;4111;50.972;7.072;2024-01-07T04:52:24;101206.50;;;3.57;100.00
8140;BME280;4111;50.972;7.072;2024-01-07T04:54:52;101207.19;;;3.44;100.00
8140;BME280;4111;50.972;7.072;2024-01-07T04:57:19;101205.97;;;3.47;100.00
8140;BME280;4111;50.972;7.072;2024-01-07T04:59:49;101204.22;;;3.54;100.00
8140;BME280;4111;50.972;7.072;2024-01-07T05:02:16;101209.94;;;3.51;100.00
8140;BME280;4111;50.972;7.072;2024-01-07T05:04:43;101210.41;;;3.40;100.00
8140;BME280;4111;50.972;7.072;2024-01-07T05:07:10;101212.31;;;3.24;100.00
8140;BME280;4111;50.972;7.072;2024-01-07T05:09:36;101215.25;;;3.29;100.00
8140;BME280;4111;50.972;7.072;2024-01-07T05:12:03;101223.47;;;3.43;100.00
8140;BME280;4111;50.972;7.072;2024-01-07T05:14:30;101226.81;;;3.45;100.00
8140;BME280;4111;50.972;7.072;2024-01-07T05:17:02;101226.50;;;3.54;100.00
8140;BME280;4111;50.972;7.072;2024-01-07T05:19:30;101226.75;;;3.38;100.00
8140;BME280;4111;50.972;7.072;2024-01-07T05:21:58;101229.31;;;3.31;100.00
8140;BME280;4111;50.972;7.072;2024-01-07T05:24:24;101239.69;;;3.34;100.00
8140;BME280;4111;50.972;7.072;2024-01-07T05:26:51;101233.94;;;3.37;100.00
8140;BME280;4111;50.972;7.072;2024-01-07T05:29:17;101237.66;;;3.36;100.00
8140;BME280;4111;50.972;7.072;2024-01-07T05:31:44;101249.31;;;3.44;100.00
8140;BME280;4111;50.972;7.072;2024-01-07T05:34:10;101243.56;;;3.47;100.00
8140;BME280;4111;50.972;7.072;2024-01-07T05:36:37;101248.00;;;3.40;100.00
8140;BME280;4111;50.972;7.072;2024-01-07T05:39:03;101247.63;;;3.28;100.00
8140;BME280;4111;50.972;7.072;2024-01-07T05:41:30;101251.34;;;3.42;100.00
8140;BME280;4111;50.972;7.072;2024-01-07T05:43:56;101254.59;;;3.37;100.00
8140;BME280;4111;50.972;7.072;2024-01-07T05:46:23;101256.25;;;3.38;100.00
8140;BME280;4111;50.972;7.072;2024-01-07T05:48:49;101261.53;;;3.31;100.00
8140;BME280;4111;50.972;7.072;2024-01-07T05:51:17;101257.09;;;3.38;100.00
8140;BME280;4111;50.972;7.072;2024-01-07T05:53:44;101257.09;;;3.38;100.00
8140;BME280;4111;50.972;7.072;2024-01-07T05:56:11;101256.72;;;3.42;100.00
8140;BME280;4111;50.972;7.072;2024-01-07T05:58:37;101260.53;;;3.32;100.00
8140;BME280;4111;50.972;7.072;2024-01-07T06:01:04;101265.13;;;3.38;100.00
8140;BME280;4111;50.972;7.072;2024-01-07T06:03:31;101270.47;;;3.53;100.00
8140;BME280;4111;50.972;7.072;2024-01-07T06:05:57;101274.13;;;3.46;100.00
8140;BME280;4111;50.972;7.072;2024-01-07T06:08:26;101279.78;;;3.36;100.00
8140;BME280;4111;50.972;7.072;2024-01-07T06:10:52;101278.84;;;3.44;100.00
8140;BME280;4111;50.972;7.072;2024-01-07T06:13:19;101286.53;;;3.32;100.00
8140;BME280;4111;50.972;7.072;2024-01-07T06:15:45;101288.38;;;3.31;100.00
8140;BME280;4111;50.972;7.072;2024-01-07T06:18:11;101289.94;;;3.41;100.00
8140;BME280;4111;50.972;7.072;2024-01-07T06:20:38;101298.63;;;3.28;100.00
8140;BME280;4111;50.972;7.072;2024-01-07T06:23:05;101300.75;;;3.03;100.00
8140;BME280;4111;50.972;7.072;2024-01-07T06:25:32;101311.56;;;2.94;100.00
8140;BME280;4111;50.972;7.072;2024-01-07T06:27:58;101306.47;;;2.85;100.00
8140;BME280;4111;50.972;7.072;2024-01-07T06:30:25;101310.97;;;2.84;100.00
8140;BME280;4111;50.972;7.072;2024-01-07T06:32:52;101321.28;;;2.95;100.00
8140;BME280;4111;50.972;7.072;2024-01-07T06:35:24;101320.06;;;2.98;100.00
8140;BME280;4111;50.972;7.072;2024-01-07T06:38:14;101322.94;;;2.96;100.00
8140;BME280;4111;50.972;7.072;2024-01-07T06:41:04;101328.09;;;2.98;100.00
8140;BME280;4111;50.972;7.072;2024-01-07T06:43:36;101325.06;;;3.01;100.00
8140;BME280;4111;50.972;7.072;2024-01-07T06:46:03;101332.00;;;2.95;100.00
8140;BME280;4111;50.972;7.072;2024-01-07T06:48:30;101338.00;;;2.97;100.00
8140;BME280;4111;50.972;7.072;2024-01-07T06:50:57;101353.50;;;3.10;100.00
8140;BME280;4111;50.972;7.072;2024-01-07T06:53:24;101350.69;;;3.04;100.00
8140;BME280;4111;50.972;7.072;2024-01-07T06:55:50;101358.22;;;3.08;100.00
8140;BME280;4111;50.972;7.072;2024-01-07T06:58:16;101360.13;;;3.00;100.00
8140;BME280;4111;50.972;7.072;2024-01-07T07:00:43;101356.28;;;3.17;100.00
8140;BME280;4111;50.972;7.072;2024-01-07T07:03:10;101367.75;;;3.11;100.00
8140;BME280;4111;50.972;7.072;2024-01-07T07:05:37;101365.16;;;3.03;100.00
8140;BME280;4111;50.972;7.072;2024-01-07T07:08:04;101373.47;;;3.08;100.00
8140;BME280;4111;50.972;7.072;2024-01-07T07:10:31;101375.50;;;3.06;100.00
8140;BME280;4111;50.972;7.072;2024-01-07T07:12:58;101378.97;;;2.91;100.00
8140;BME280;4111;50.972;7.072;2024-01-07T07:15:24;101379.22;;;2.82;100.00
8140;BME280;4111;50.972;7.072;2024-01-07T07:17:53;101379.72;;;2.85;100.00
8140;BME280;4111;50.972;7.072;2024-01-07T07:20:19;101381.13;;;2.96;100.00
8140;BME280;4111;50.972;7.072;2024-01-07T07:22:46;101386.97;;;3.00;100.00
8140;BME280;4111;50.972;7.072;2024-01-07T07:25:12;101390.19;;;2.95;100.00
8140;BME280;4111;50.972;7.072;2024-01-07T07:27:39;101389.56;;;3.08;100.00
8140;BME280;4111;50.972;7.072;2024-01-07T07:30:06;101398.91;;;3.12;100.00
8140;BME280;4111;50.972;7.072;2024-01-07T07:32:32;101393.84;;;3.02;100.00
8140;BME280;4111;50.972;7.072;2024-01-07T07:34:59;101396.97;;;3.06;100.00
8140;BME280;4111;50.972;7.072;2024-01-07T07:37:26;101405.66;;;3.08;100.00
8140;BME280;4111;50.972;7.072;2024-01-07T07:39:52;101408.00;;;3.11;100.00
8140;BME280;4111;50.972;7.072;2024-01-07T07:42:21;101415.75;;;3.06;100.00
8140;BME280;4111;50.972;7.072;2024-01-07T07:44:47;101415.09;;;3.04;100.00
8140;BME280;4111;50.972;7.072;2024-01-07T07:47:14;101415.03;;;3.12;100.00
8140;BME280;4111;50.972;7.072;2024-01-07T07:49:40;101418.06;;;3.09;100.00
8140;BME280;4111;50.972;7.072;2024-01-07T07:52:07;101417.13;;;3.02;100.00
8140;BME280;4111;50.972;7.072;2024-01-07T07:54:37;101424.75;;;3.13;100.00
8140;BME280;4111;50.972;7.072;2024-01-07T07:57:03;101430.84;;;3.07;100.00
8140;BME280;4111;50.972;7.072;2024-01-07T07:59:30;101430.28;;;2.88;100.00
8140;BME280;4111;50.972;7.072;2024-01-07T08:01:56;101432.63;;;2.91;100.00
8140;BME280;4111;50.972;7.072;2024-01-07T08:04:23;101437.69;;;2.86;100.00
8140;BME280;4111;50.972;7.072;2024-01-07T08:06:49;101440.75;;;2.83;100.00
8140;BME280;4111;50.972;7.072;2024-01-07T08:09:16;101447.41;;;2.87;100.00
8140;BME280;4111;50.972;7.072;2024-01-07T08:11:42;101453.78;;;2.86;100.00
8140;BME280;4111;50.972;7.072;2024-01-07T08:14:09;101458.19;;;2.79;100.00
8140;BME280;4111;50.972;7.072;2024-01-07T08:16:35;101449.13;;;2.80;100.00
8140;BME280;4111;50.972;7.072;2024-01-07T08:19:02;101455.16;;;2.82;100.00
8140;BME280;4111;50.972;7.072;2024-01-07T08:21:28;101463.44;;;2.95;100.00
8140;BME280;4111;50.972;7.072;2024-01-07T08:23:55;101462.69;;;2.87;100.00
8140;BME280;4111;50.972;7.072;2024-01-07T08:26:21;101465.44;;;2.78;100.00
8140;BME280;4111;50.972;7.072;2024-01-07T08:28:49;101476.31;;;2.77;100.00
8140;BME280;4111;50.972;7.072;2024-01-07T08:31:15;101485.72;;;2.73;100.00
8140;BME280;4111;50.972;7.072;2024-01-07T08:33:42;101487.06;;;2.77;100.00
8140;BME280;4111;50.972;7.072;2024-01-07T08:36:08;101489.34;;;2.80;100.00
8140;BME280;4111;50.972;7.072;2024-01-07T08:38:35;101497.41;;;2.80;100.00
8140;BME280;4111;50.972;7.072;2024-01-07T08:41:01;101507.31;;;2.80;100.00
8140;BME280;4111;50.972;7.072;2024-01-07T08:43:28;101508.13;;;2.80;100.00
8140;BME280;4111;50.972;7.072;2024-01-07T08:45:54;101509.00;;;2.81;100.00
8140;BME280;4111;50.972;7.072;2024-01-07T08:48:21;101520.38;;;2.83;100.00
8140;BME280;4111;50.972;7.072;2024-01-07T08:50:47;101518.81;;;2.88;100.00
8140;BME280;4111;50.972;7.072;2024-01-07T08:53:15;101522.19;;;2.90;100.00
8140;BME280;4111;50.972;7.072;2024-01-07T08:55:41;101531.06;;;2.91;100.00
8140;BME280;4111;50.972;7.072;2024-01-07T08:58:07;101524.19;;;2.88;100.00
8140;BME280;4111;50.972;7.072;2024-01-07T09:00:34;101520.19;;;2.84;100.00
8140;BME280;4111;50.972;7.072;2024-01-07T09:03:00;101531.56;;;2.86;100.00
8140;BME280;4111;50.972;7.072;2024-01-07T09:05:27;101531.75;;;2.85;100.00
8140;BME280;4111;50.972;7.072;2024-01-07T09:07:53;101535.09;;;2.87;100.00
8140;BME280;4111;50.972;7.072;2024-01-07T09:10:20;101535.22;;;2.93;100.00
8140;BME280;4111;50.972;7.072;2024-01-07T09:12:47;101531.22;;;2.89;100.00
8140;BME280;4111;50.972;7.072;2024-01-07T09:15:18;101543.31;;;2.85;100.00
8140;BME280;4111;50.972;7.072;2024-01-07T09:17:44;101537.97;;;2.85;100.00
8140;BME280;4111;50.972;7.072;2024-01-07T09:20:12;101540.31;;;2.80;100.00
8140;BME280;4111;50.972;7.072;2024-01-07T09:22:39;101555.13;;;2.68;100.00
8140;BME280;4111;50.972;7.072;2024-01-07T09:25:06;101552.50;;;2.60;100.00
8140;BME280;4111;50.972;7.072;2024-01-07T09:27:33;101556.81;;;2.61;100.00
8140;BME280;4111;50.972;7.072;2024-01-07T09:30:01;101560.38;;;2.61;100.00
8140;BME280;4111;50.972;7.072;2024-01-07T09:32:31;101561.84;;;2.64;100.00
8140;BME280;4111;50.972;7.072;2024-01-07T09:35:02;101559.84;;;2.66;100.00
8140;BME280;4111;50.972;7.072;2024-01-07T09:37:31;101555.97;;;2.68;100.00
8140;BME280;4111;50.972;7.072;2024-01-07T09:39:58;101563.84;;;2.70;99.33
8140;BME280;4111;50.972;7.072;2024-01-07T09:42:25;101562.50;;;2.66;99.24
8140;BME280;4111;50.972;7.072;2024-01-07T09:44:51;101569.19;;;2.70;98.87
8140;BME280;4111;50.972;7.072;2024-01-07T09:47:18;101565.47;;;2.79;98.73
8140;BME280;4111;50.972;7.072;2024-01-07T09:49:44;101577.69;;;2.82;98.49
8140;BME280;4111;50.972;7.072;2024-01-07T09:52:12;101574.22;;;2.73;97.74
8140;BME280;4111;50.972;7.072;2024-01-07T09:54:40;101579.38;;;2.83;98.03
8140;BME280;4111;50.972;7.072;2024-01-07T09:57:07;101581.50;;;2.95;97.96
8140;BME280;4111;50.972;7.072;2024-01-07T09:59:35;101578.81;;;2.95;97.39
8140;BME280;4111;50.972;7.072;2024-01-07T10:02:03;101581.53;;;2.87;96.51
8140;BME280;4111;50.972;7.072;2024-01-07T10:04:30;101582.19;;;2.89;96.48
8140;BME280;4111;50.972;7.072;2024-01-07T10:06:57;101589.03;;;2.92;95.86
8140;BME280;4111;50.972;7.072;2024-01-07T10:09:30;101588.50;;;3.05;95.99
8140;BME280;4111;50.972;7.072;2024-01-07T10:11:56;101583.72;;;3.15;96.04
8140;BME280;4111;50.972;7.072;2024-01-07T10:14:22;101591.13;;;3.13;95.47
8140;BME280;4111;50.972;7.072;2024-01-07T10:16:50;101588.16;;;3.00;94.63
8140;BME280;4111;50.972;7.072;2024-01-07T10:19:24;101604.09;;;3.01;94.95
8140;BME280;4111;50.972;7.072;2024-01-07T10:22:04;101599.03;;;2.75;94.77
8140;BME280;4111;50.972;7.072;2024-01-07T10:24:36;101599.53;;;2.78;95.18
8140;BME280;4111;50.972;7.072;2024-01-07T10:27:06;101597.00;;;2.77;95.31
8140;BME280;4111;50.972;7.072;2024-01-07T10:29:33;101601.38;;;2.70;95.21
8140;BME280;4111;50.972;7.072;2024-01-07T10:32:00;101606.03;;;2.76;95.42
8140;BME280;4111;50.972;7.072;2024-01-07T10:34:34;101603.06;;;2.71;95.36
8140;BME280;4111;50.972;7.072;2024-01-07T10:37:03;101603.41;;;2.68;95.29
8140;BME280;4111;50.972;7.072;2024-01-07T10:39:31;101607.72;;;2.77;95.55
8140;BME280;4111;50.972;7.072;2024-01-07T10:41:57;101607.78;;;2.61;95.21
8140;BME280;4111;50.972;7.072;2024-01-07T10:44:31;101611.16;;;2.54;95.43
8140;BME280;4111;50.972;7.072;2024-01-07T10:46:59;101618.03;;;2.57;95.34
8140;BME280;4111;50.972;7.072;2024-01-07T10:49:27;101618.16;;;2.64;95.80
8140;BME280;4111;50.972;7.072;2024-01-07T10:52:07;101615.78;;;2.77;95.91
8140;BME280;4111;50.972;7.072;2024-01-07T10:54:35;101614.94;;;2.76;95.70
8140;BME280;4111;50.972;7.072;2024-01-07T10:57:24;101614.16;;;2.60;95.27
8140;BME280;4111;50.972;7.072;2024-01-07T10:59:56;101621.66;;;2.64;95.45
8140;BME280;4111;50.972;7.072;2024-01-07T11:02:22;101625.22;;;2.65;95.41
8140;BME280;4111;50.972;7.072;2024-01-07T11:05:14;101629.22;;;2.61;95.29
8140;BME280;4111;50.972;7.072;2024-01-07T11:07:46;101626.94;;;2.49;95.08
8140;BME280;4111;50.972;7.072;2024-01-07T11:10:18;101622.53;;;2.56;95.50
8140;BME280;4111;50.972;7.072;2024-01-07T11:12:55;101629.22;;;2.61;95.25
8140;BME280;4111;50.972;7.072;2024-01-07T11:18:22;101624.84;;;2.68;94.96
8140;BME280;4111;50.972;7.072;2024-01-07T11:20:49;101628.06;;;2.63;94.87
8140;BME280;4111;50.972;7.072;2024-01-07T11:23:36;101626.72;;;2.67;94.90
8140;BME280;4111;50.972;7.072;2024-01-07T11:26:08;101632.38;;;2.72;94.83
8140;BME280;4111;50.972;7.072;2024-01-07T11:28:55;101637.78;;;2.56;94.34
8140;BME280;4111;50.972;7.072;2024-01-07T11:31:43;101640.47;;;2.56;94.70
8140;BME280;4111;50.972;7.072;2024-01-07T11:34:10;101639.66;;;2.47;94.13
8140;BME280;4111;50.972;7.072;2024-01-07T11:36:38;101639.03;;;2.37;94.47
8140;BME280;4111;50.972;7.072;2024-01-07T11:39:05;101638.66;;;2.40;94.57
8140;BME280;4111;50.972;7.072;2024-01-07T11:41:37;101643.34;;;2.46;94.61
8140;BME280;4111;50.972;7.072;2024-01-07T11:44:04;101644.66;;;2.50;94.90
8140;BME280;4111;50.972;7.072;2024-01-07T11:46:32;101641.81;;;2.52;94.79
8140;BME280;4111;50.972;7.072;2024-01-07T11:48:59;101641.50;;;2.55;94.87
8140;BME280;4111;50.972;7.072;2024-01-07T11:51:28;101642.66;;;2.52;94.61
8140;BME280;4111;50.972;7.072;2024-01-07T11:53:54;101645.31;;;2.61;94.82
8140;BME280;4111;50.972;7.072;2024-01-07T11:56:21;101653.19;;;2.62;94.36
8140;BME280;4111;50.972;7.072;2024-01-07T11:58:47;101651.34;;;2.54;94.29
8140;BME280;4111;50.972;7.072;2024-01-07T12:01:18;101656.41;;;2.57;94.29
8140;BME280;4111;50.972;7.072;2024-01-07T12:03:45;101654.41;;;2.51;93.69
8140;BME280;4111;50.972;7.072;2024-01-07T12:06:12;101658.25;;;2.49;93.78
8140;BME280;4111;50.972;7.072;2024-01-07T12:08:42;101662.78;;;2.48;93.37
8140;BME280;4111;50.972;7.072;2024-01-07T12:11:11;101666.13;;;2.42;93.68
8140;BME280;4111;50.972;7.072;2024-01-07T12:13:39;101659.41;;;2.46;93.96
8140;BME280;4111;50.972;7.072;2024-01-07T12:16:06;101667.47;;;2.38;93.49
8140;BME280;4111;50.972;7.072;2024-01-07T12:18:36;101671.16;;;2.45;93.66
8140;BME280;4111;50.972;7.072;2024-01-07T12:21:03;101663.44;;;2.42;93.34
8140;BME280;4111;50.972;7.072;2024-01-07T12:23:34;101670.16;;;2.46;93.51
8140;BME280;4111;50.972;7.072;2024-01-07T12:26:11;101673.16;;;2.51;93.55
8140;BME280;4111;50.972;7.072;2024-01-07T12:28:38;101675.69;;;2.53;93.48
8140;BME280;4111;50.972;7.072;2024-01-07T12:31:06;101670.16;;;2.46;93.25
8140;BME280;4111;50.972;7.072;2024-01-07T12:33:34;101670.16;;;2.46;93.16
8140;BME280;4111;50.972;7.072;2024-01-07T12:36:03;101678.19;;;2.46;93.14
8140;BME280;4111;50.972;7.072;2024-01-07T12:38:30;101678.53;;;2.35;92.46
8140;BME280;4111;50.972;7.072;2024-01-07T12:40:56;101680.56;;;2.25;92.92
8140;BME280;4111;50.972;7.072;2024-01-07T12:43:23;101694.47;;;2.28;92.85
8140;BME280;4111;50.972;7.072;2024-01-07T12:45:50;101686.25;;;2.38;93.09
8140;BME280;4111;50.972;7.072;2024-01-07T12:48:16;101690.94;;;2.44;93.36
8140;BME280;4111;50.972;7.072;2024-01-07T12:50:43;101688.25;;;2.44;93.21
8140;BME280;4111;50.972;7.072;2024-01-07T12:53:09;101682.38;;;2.41;93.21
8140;BME280;4111;50.972;7.072;2024-01-07T12:55:36;101688.25;;;2.36;92.71
8140;BME280;4111;50.972;7.072;2024-01-07T12:58:02;101698.50;;;2.16;92.31
8140;BME280;4111;50.972;7.072;2024-01-07T13:00:29;101693.63;;;2.11;92.22
8140;BME280;4111;50.972;7.072;2024-01-07T13:02:55;101699.63;;;2.05;91.67
8140;BME280;4111;50.972;7.072;2024-01-07T13:05:27;101705.69;;;2.15;92.30
8140;BME280;4111;50.972;7.072;2024-01-07T13:07:53;101712.41;;;2.20;91.97
8140;BME280;4111;50.972;7.072;2024-01-07T13:10:20;101712.72;;;2.16;91.61
8140;BME280;4111;50.972;7.072;2024-01-07T13:12:47;101717.06;;;2.09;91.50
8140;BME280;4111;50.972;7.072;2024-01-07T13:15:18;101718.22;;;1.90;90.61
8140;BME280;4111;50.972;7.072;2024-01-07T13:17:45;101726.78;;;1.86;90.85
8140;BME280;4111;50.972;7.072;2024-01-07T13:20:11;101733.94;;;1.77;90.57
8140;BME280;4111;50.972;7.072;2024-01-07T13:22:38;101737.78;;;1.83;90.93
8140;BME280;4111;50.972;7.072;2024-01-07T13:25:06;101727.41;;;1.79;90.24